sensor_id;sensor_type;location;lat;lon;timestamp;P1;durP1;ratioP1;P2;durP2;ratioP2
6374;SDS011;35400;45.472;-122.822;2024-01-06T00:00:53;10.00;;;1.90;;
6374;SDS011;35400;45.472;-122.822;2024-01-06T00:03:20;9.23;;;2.17;;
6374;SDS011;35400;45.472;-122.822;2024-01-06T00:05:46;6.27;;;1.90;;
6374;SDS011;35400;45.472;-122.822;2024-01-06T00:08:13;8.33;;;2.03;;
6374;SDS011;35400;45.472;-122.822;2024-01-06T00:10:40;8.97;;;2.53;;
6374;SDS011;35400;45.472;-122.822;2024-01-06T00:13:07;7.07;;;1.80;;
6374;SDS011;35400;45.472;-122.822;2024-01-06T00:15:34;7.40;;;1.60;;
6374;SDS011;35400;45.472;-122.822;2024-01-06T00:18:01;9.83;;;2.10;;
6374;SDS011;35400;45.472;-122.822;2024-01-06T00:20:28;5.63;;;2.00;;
6374;SDS011;35400;45.472;-122.822;2024-01-06T00:22:55;5.97;;;2.07;;
6374;SDS011;35400;45.472;-122.822;2024-01-06T00:25:24;7.53;;;1.90;;
6374;SDS011;35400;45.472;-122.822;2024-01-06T00:27:51;11.07;;;1.93;;
6374;SDS011;35400;45.472;-122.822;2024-01-06T00:30:18;7.00;;;2.10;;
6374;SDS011;35400;45.472;-122.822;2024-01-06T00:32:45;6.87;;;1.93;;
6374;SDS011;35400;45.472;-122.822;2024-01-06T00:35:12;11.63;;;2.53;;
6374;SDS011;35400;45.472;-122.822;2024-01-06T00:37:38;8.80;;;2.13;;
6374;SDS011;35400;45.472;-122.822;2024-01-06T00:40:05;7.73;;;2.37;;
6374;SDS011;35400;45.472;-122.822;2024-01-06T00:42:33;6.73;;;2.33;;
6374;SDS011;35400;45.472;-122.822;2024-01-06T00:45:00;15.67;;;2.77;;
6374;SDS011;35400;45.472;-122.822;2024-01-06T00:47:27;8.97;;;1.97;;
6374;SDS011;35400;45.472;-122.822;2024-01-06T00:49:53;6.17;;;1.83;;
6374;SDS011;35400;45.472;-122.822;2024-01-06T00:52:20;9.93;;;2.70;;
6374;SDS011;35400;45.472;-122.822;2024-01-06T00:54:47;8.90;;;2.30;;
6374;SDS011;35400;45.472;-122.822;2024-01-06T00:57:14;9.00;;;2.10;;
6374;SDS011;35400;45.472;-122.822;2024-01-06T00:59:41;10.30;;;1.90;;
6374;SDS011;35400;45.472;-122.822;2024-01-06T01:02:08;6.63;;;1.57;;
6374;SDS011;35400;45.472;-122.822;2024-01-06T01:04:34;8.17;;;2.23;;
6374;SDS011;35400;45.472;-122.822;2024-01-06T01:07:01;7.07;;;2.27;;
6374;SDS011;35400;45.472;-122.822;2024-01-06T01:09:28;6.90;;;2.67;;
6374;SDS011;35400;45.472;-122.822;2024-01-06T01:11:55;6.50;;;2.63;;
6374;SDS011;35400;45.472;-122.822;2024-01-06T01:14:22;11.00;;;2.63;;
6374;SDS011;35400;45.472;-122.822;2024-01-06T01:16:49;6.07;;;2.40;;
6374;SDS011;35400;45.472;-122.822;2024-01-06T01:19:16;5.03;;;2.00;;
6374;SDS011;35400;45.472;-122.822;2024-01-06T01:21:43;7.27;;;2.00;;
6374;SDS011;35400;45.472;-122.822;2024-01-06T01:24:09;9.63;;;2.47;;
6374;SDS011;35400;45.472;-122.822;2024-01-06T01:26:36;5.93;;;2.40;;
6374;SDS011;35400;45.472;-122.822;2024-01-06T01:29:03;8.13;;;2.00;;
6374;SDS011;35400;45.472;-122.822;2024-01-06T01:31:31;6.20;;;1.87;;
6374;SDS011;35400;45.472;-122.822;2024-01-06T01:33:58;6.40;;;1.70;;
6374;SDS011;35400;45.472;-122.822;2024-01-06T01:36:24;2.80;;;1.63;;
6374;SDS011;35400;45.472;-122.822;2024-01-06T01:38:51;7.57;;;2.27;;
6374;SDS011;35400;45.472;-122.822;2024-01-06T01:41:18;8.47;;;2.60;;
6374;SDS011;35400;45.472;-122.822;2024-01-06T01:43:45;5.93;;;2.00;;
6374;SDS011;35400;45.472;-122.822;2024-01-06T01:46:12;8.77;;;2.30;;
6374;SDS011;35400;45.472;-122.822;2024-01-06T01:48:40;7.40;;;1.90;;
6374;SDS011;35400;45.472;-122.822;2024-01-06T01:51:07;6.73;;;1.90;;
6374;SDS011;35400;45.472;-122.822;2024-01-06T01:53:35;4.77;;;2.00;;
6374;SDS011;35400;45.472;-122.822;2024-01-06T01:56:02;6.63;;;2.00;;
6374;SDS011;35400;45.472;-122.822;2024-01-06T01:58:29;5.97;;;1.93;;
6374;SDS011;35400;45.472;-122.822;2024-01-06T02:00:56;5.10;;;1.40;;
6374;SDS011;35400;45.472;-122.822;2024-01-06T02:03:23;6.67;;;2.03;;
6374;SDS011;35400;45.472;-122.822;2024-01-06T02:05:51;13.30;;;2.10;;
6374;SDS011;35400;45.472;-122.822;2024-01-06T02:08:18;6.37;;;2.03;;
6374;SDS011;35400;45.472;-122.822;2024-01-06T02:10:45;6.80;;;1.70;;
6374;SDS011;35400;45.472;-122.822;2024-01-06T02:13:12;5.77;;;1.67;;
6374;SDS011;35400;45.472;-122.822;2024-01-06T02:15:39;7.83;;;1.70;;
6374;SDS011;35400;45.472;-122.822;2024-01-06T02:18:06;5.03;;;1.90;;
6374;SDS011;35400;45.472;-122.822;2024-01-06T02:20:33;6.53;;;2.27;;
6374;SDS011;35400;45.472;-122.822;2024-01-06T02:23:00;9.03;;;1.60;;
6374;SDS011;35400;45.472;-122.822;2024-01-06T02:25:27;7.73;;;2.40;;
6374;SDS011;35400;45.472;-122.822;2024-01-06T02:27:55;5.37;;;1.80;;
6374;SDS011;35400;45.472;-122.822;2024-01-06T02:30:21;7.67;;;2.87;;
6374;SDS011;35400;45.472;-122.822;2024-01-06T02:32:48;7.33;;;2.40;;
6374;SDS011;35400;45.472;-122.822;2024-01-06T02:35:15;6.77;;;2.40;;
6374;SDS011;35400;45.472;-122.822;2024-01-06T02:37:42;5.53;;;2.07;;
6374;SDS011;35400;45.472;-122.822;2024-01-06T02:40:09;6.53;;;2.23;;
6374;SDS011;35400;45.472;-122.822;2024-01-06T02:42:37;5.17;;;1.80;;
6374;SDS011;35400;45.472;-122.822;2024-01-06T02:45:03;9.37;;;2.30;;
6374;SDS011;35400;45.472;-122.822;2024-01-06T02:47:31;6.70;;;2.70;;
6374;SDS011;35400;45.472;-122.822;2024-01-06T02:49:58;7.17;;;2.17;;
6374;SDS011;35400;45.472;-122.822;2024-01-06T02:52:24;6.57;;;2.40;;
6374;SDS011;35400;45.472;-122.822;2024-01-06T02:54:51;6.23;;;1.97;;
6374;SDS011;35400;45.472;-122.822;2024-01-06T02:57:18;5.77;;;2.57;;
6374;SDS011;35400;45.472;-122.822;2024-01-06T02:59:45;9.03;;;1.70;;
6374;SDS011;35400;45.472;-122.822;2024-01-06T03:02:12;4.70;;;1.87;;
6374;SDS011;35400;45.472;-122.822;2024-01-06T03:04:39;5.77;;;1.80;;
6374;SDS011;35400;45.472;-122.822;2024-01-06T03:07:05;5.73;;;1.57;;
6374;SDS011;35400;45.472;-122.822;2024-01-06T03:09:32;8.33;;;2.07;;
6374;SDS011;35400;45.472;-122.822;2024-01-06T03:11:59;3.70;;;1.60;;
6374;SDS011;35400;45.472;-122.822;2024-01-06T03:14:26;6.10;;;2.20;;
6374;SDS011;35400;45.472;-122.822;2024-01-06T03:16:53;4.97;;;1.70;;
6374;SDS011;35400;45.472;-122.822;2024-01-06T03:19:20;7.30;;;1.77;;
6374;SDS011;35400;45.472;-122.822;2024-01-06T03:21:51;6.00;;;1.80;;
6374;SDS011;35400;45.472;-122.822;2024-01-06T03:24:18;6.90;;;1.57;;
6374;SDS011;35400;45.472;-122.822;2024-01-06T03:26:46;6.77;;;1.90;;
6374;SDS011;35400;45.472;-122.822;2024-01-06T03:29:13;5.30;;;2.07;;
6374;SDS011;35400;45.472;-122.822;2024-01-06T03:31:43;7.00;;;2.20;;
6374;SDS011;35400;45.472;-122.822;2024-01-06T03:34:11;6.30;;;2.00;;
6374;SDS011;35400;45.472;-122.822;2024-01-06T03:36:39;5.80;;;1.70;;
6374;SDS011;35400;45.472;-122.822;2024-01-06T03:39:06;5.73;;;2.00;;
6374;SDS011;35400;45.472;-122.822;2024-01-06T03:41:33;3.47;;;1.73;;
6374;SDS011;35400;45.472;-122.822;2024-01-06T03:44:00;5.50;;;2.03;;
6374;SDS011;35400;45.472;-122.822;2024-01-06T03:46:27;5.80;;;1.97;;
6374;SDS011;35400;45.472;-122.822;2024-01-06T03:48:54;5.47;;;1.83;;
6374;SDS011;35400;45.472;-122.822;2024-01-06T03:51:21;8.70;;;1.90;;
6374;SDS011;35400;45.472;-122.822;2024-01-06T03:53:48;4.93;;;1.73;;
6374;SDS011;35400;45.472;-122.822;2024-01-06T03:56:15;6.30;;;1.73;;
6374;SDS011;35400;45.472;-122.822;2024-01-06T03:58:42;3.30;;;1.63;;
6374;SDS011;35400;45.472;-122.822;2024-01-06T04:01:09;6.07;;;1.83;;
6374;SDS011;35400;45.472;-122.822;2024-01-06T04:03:36;6.17;;;1.80;;
6374;SDS011;35400;45.472;-122.822;2024-01-06T04:06:06;7.70;;;2.07;;
6374;SDS011;35400;45.472;-122.822;2024-01-06T04:08:33;10.50;;;1.93;;
6374;SDS011;35400;45.472;-122.822;2024-01-06T04:10:59;3.30;;;2.00;;
6374;SDS011;35400;45.472;-122.822;2024-01-06T04:13:26;7.00;;;1.50;;
6374;SDS011;35400;45.472;-122.822;2024-01-06T04:15:54;3.37;;;1.20;;
6374;SDS011;35400;45.472;-122.822;2024-01-06T04:18:21;3.73;;;1.50;;
6374;SDS011;35400;45.472;-122.822;2024-01-06T04:20:47;3.37;;;1.40;;
6374;SDS011;35400;45.472;-122.822;2024-01-06T04:23:14;4.80;;;1.20;;
6374;SDS011;35400;45.472;-122.822;2024-01-06T04:25:41;3.70;;;1.33;;
6374;SDS011;35400;45.472;-122.822;2024-01-06T04:28:08;4.67;;;2.00;;
6374;SDS011;35400;45.472;-122.822;2024-01-06T04:30:35;6.87;;;1.60;;
6374;SDS011;35400;45.472;-122.822;2024-01-06T04:33:02;3.97;;;1.60;;
6374;SDS011;35400;45.472;-122.822;2024-01-06T04:35:29;3.90;;;1.17;;
6374;SDS011;35400;45.472;-122.822;2024-01-06T04:37:55;3.27;;;1.70;;
6374;SDS011;35400;45.472;-122.822;2024-01-06T04:40:22;6.33;;;1.10;;
6374;SDS011;35400;45.472;-122.822;2024-01-06T04:42:49;4.43;;;1.23;;
6374;SDS011;35400;45.472;-122.822;2024-01-06T04:45:16;3.27;;;1.20;;
6374;SDS011;35400;45.472;-122.822;2024-01-06T04:47:45;3.63;;;1.23;;
6374;SDS011;35400;45.472;-122.822;2024-01-06T04:50:12;4.60;;;1.50;;
6374;SDS011;35400;45.472;-122.822;2024-01-06T04:52:39;3.07;;;1.07;;
6374;SDS011;35400;45.472;-122.822;2024-01-06T04:55:06;4.97;;;1.40;;
6374;SDS011;35400;45.472;-122.822;2024-01-06T04:57:33;2.57;;;1.20;;
6374;SDS011;35400;45.472;-122.822;2024-01-06T05:00:01;2.57;;;1.17;;
6374;SDS011;35400;45.472;-122.822;2024-01-06T05:02:28;5.17;;;1.47;;
6374;SDS011;35400;45.472;-122.822;2024-01-06T05:04:55;3.17;;;1.57;;
6374;SDS011;35400;45.472;-122.822;2024-01-06T05:07:22;3.90;;;1.30;;
6374;SDS011;35400;45.472;-122.822;2024-01-06T05:09:49;3.73;;;1.50;;
6374;SDS011;35400;45.472;-122.822;2024-01-06T05:12:15;7.93;;;1.40;;
6374;SDS011;35400;45.472;-122.822;2024-01-06T05:14:42;3.50;;;1.20;;
6374;SDS011;35400;45.472;-122.822;2024-01-06T05:17:09;4.43;;;1.40;;
6374;SDS011;35400;45.472;-122.822;2024-01-06T05:19:36;2.63;;;1.20;;
6374;SDS011;35400;45.472;-122.822;2024-01-06T05:22:03;8.17;;;1.57;;
6374;SDS011;35400;45.472;-122.822;2024-01-06T05:24:30;3.23;;;1.50;;
6374;SDS011;35400;45.472;-122.822;2024-01-06T05:26:57;2.83;;;1.30;;
6374;SDS011;35400;45.472;-122.822;2024-01-06T05:29:24;3.30;;;1.27;;
6374;SDS011;35400;45.472;-122.822;2024-01-06T05:31:52;5.17;;;1.60;;
6374;SDS011;35400;45.472;-122.822;2024-01-06T05:34:19;5.17;;;1.47;;
6374;SDS011;35400;45.472;-122.822;2024-01-06T05:36:45;4.67;;;1.70;;
6374;SDS011;35400;45.472;-122.822;2024-01-06T05:39:12;3.93;;;1.47;;
6374;SDS011;35400;45.472;-122.822;2024-01-06T05:41:40;6.17;;;1.37;;
6374;SDS011;35400;45.472;-122.822;2024-01-06T05:44:07;5.60;;;1.67;;
6374;SDS011;35400;45.472;-122.822;2024-01-06T05:46:34;4.70;;;1.30;;
6374;SDS011;35400;45.472;-122.822;2024-01-06T05:49:01;6.13;;;1.60;;
6374;SDS011;35400;45.472;-122.822;2024-01-06T05:51:28;3.20;;;1.53;;
6374;SDS011;35400;45.472;-122.822;2024-01-06T05:53:55;4.23;;;1.40;;
6374;SDS011;35400;45.472;-122.822;2024-01-06T05:56:25;7.60;;;1.30;;
6374;SDS011;35400;45.472;-122.822;2024-01-06T05:58:52;2.87;;;1.40;;
6374;SDS011;35400;45.472;-122.822;2024-01-06T06:01:20;4.53;;;0.90;;
6374;SDS011;35400;45.472;-122.822;2024-01-06T06:03:47;4.07;;;1.50;;
6374;SDS011;35400;45.472;-122.822;2024-01-06T06:06:15;3.40;;;1.60;;
6374;SDS011;35400;45.472;-122.822;2024-01-06T06:08:42;3.10;;;1.10;;
6374;SDS011;35400;45.472;-122.822;2024-01-06T06:11:09;2.73;;;1.33;;
6374;SDS011;35400;45.472;-122.822;2024-01-06T06:13:37;3.47;;;1.30;;
6374;SDS011;35400;45.472;-122.822;2024-01-06T06:16:06;5.23;;;1.40;;
6374;SDS011;35400;45.472;-122.822;2024-01-06T06:18:34;4.37;;;1.47;;
6374;SDS011;35400;45.472;-122.822;2024-01-06T06:21:01;3.40;;;1.20;;
6374;SDS011;35400;45.472;-122.822;2024-01-06T06:23:30;4.10;;;1.43;;
6374;SDS011;35400;45.472;-122.822;2024-01-06T06:25:57;5.20;;;1.60;;
6374;SDS011;35400;45.472;-122.822;2024-01-06T06:28:25;4.10;;;1.17;;
6374;SDS011;35400;45.472;-122.822;2024-01-06T06:30:52;3.03;;;1.70;;
6374;SDS011;35400;45.472;-122.822;2024-01-06T06:33:19;3.23;;;1.40;;
6374;SDS011;35400;45.472;-122.822;2024-01-06T06:35:46;3.93;;;1.27;;
6374;SDS011;35400;45.472;-122.822;2024-01-06T06:38:13;3.10;;;1.20;;
6374;SDS011;35400;45.472;-122.822;2024-01-06T06:40:39;6.03;;;1.27;;
6374;SDS011;35400;45.472;-122.822;2024-01-06T06:43:06;5.17;;;1.20;;
6374;SDS011;35400;45.472;-122.822;2024-01-06T06:45:34;3.43;;;1.07;;
6374;SDS011;35400;45.472;-122.822;2024-01-06T06:48:00;5.23;;;1.30;;
6374;SDS011;35400;45.472;-122.822;2024-01-06T06:50:28;4.10;;;1.40;;
6374;SDS011;35400;45.472;-122.822;2024-01-06T06:52:55;3.87;;;1.00;;
6374;SDS011;35400;45.472;-122.822;2024-01-06T06:55:22;4.60;;;1.23;;
6374;SDS011;35400;45.472;-122.822;2024-01-06T06:57:49;2.67;;;1.00;;
6374;SDS011;35400;45.472;-122.822;2024-01-06T07:00:16;2.27;;;1.00;;
6374;SDS011;35400;45.472;-122.822;2024-01-06T07:02:43;2.63;;;1.27;;
6374;SDS011;35400;45.472;-122.822;2024-01-06T07:05:09;3.70;;;1.20;;
6374;SDS011;35400;45.472;-122.822;2024-01-06T07:07:36;3.17;;;1.30;;
6374;SDS011;35400;45.472;-122.822;2024-01-06T07:10:06;7.03;;;2.00;;
6374;SDS011;35400;45.472;-122.822;2024-01-06T07:12:33;3.13;;;1.40;;
6374;SDS011;35400;45.472;-122.822;2024-01-06T07:15:00;4.63;;;1.13;;
6374;SDS011;35400;45.472;-122.822;2024-01-06T07:17:27;3.37;;;1.10;;
6374;SDS011;35400;45.472;-122.822;2024-01-06T07:19:54;2.77;;;1.20;;
6374;SDS011;35400;45.472;-122.822;2024-01-06T07:22:21;3.57;;;1.30;;
6374;SDS011;35400;45.472;-122.822;2024-01-06T07:24:48;5.57;;;1.47;;
6374;SDS011;35400;45.472;-122.822;2024-01-06T07:27:15;4.07;;;1.20;;
6374;SDS011;35400;45.472;-122.822;2024-01-06T07:29:42;4.23;;;1.47;;
6374;SDS011;35400;45.472;-122.822;2024-01-06T07:32:08;4.63;;;1.57;;
6374;SDS011;35400;45.472;-122.822;2024-01-06T07:34:35;5.73;;;1.70;;
6374;SDS011;35400;45.472;-122.822;2024-01-06T07:37:02;4.27;;;1.70;;
6374;SDS011;35400;45.472;-122.822;2024-01-06T07:39:29;3.33;;;1.37;;
6374;SDS011;35400;45.472;-122.822;2024-01-06T07:41:56;6.87;;;1.47;;
6374;SDS011;35400;45.472;-122.822;2024-01-06T07:44:23;5.10;;;1.63;;
6374;SDS011;35400;45.472;-122.822;2024-01-06T07:46:50;3.87;;;1.27;;
6374;SDS011;35400;45.472;-122.822;2024-01-06T07:49:18;6.93;;;1.63;;
6374;SDS011;35400;45.472;-122.822;2024-01-06T07:51:45;5.47;;;1.50;;
6374;SDS011;35400;45.472;-122.822;2024-01-06T07:54:11;5.27;;;1.40;;
6374;SDS011;35400;45.472;-122.822;2024-01-06T07:56:38;5.03;;;1.60;;
6374;SDS011;35400;45.472;-122.822;2024-01-06T07:59:05;7.13;;;1.87;;
6374;SDS011;35400;45.472;-122.822;2024-01-06T08:01:32;5.97;;;1.53;;
6374;SDS011;35400;45.472;-122.822;2024-01-06T08:03:59;9.87;;;2.00;;
6374;SDS011;35400;45.472;-122.822;2024-01-06T08:06:26;8.07;;;1.53;;
6374;SDS011;35400;45.472;-122.822;2024-01-06T08:08:53;5.93;;;1.70;;
6374;SDS011;35400;45.472;-122.822;2024-01-06T08:11:20;5.00;;;1.63;;
6374;SDS011;35400;45.472;-122.822;2024-01-06T08:13:47;5.93;;;1.60;;
6374;SDS011;35400;45.472;-122.822;2024-01-06T08:16:14;6.77;;;1.60;;
6374;SDS011;35400;45.472;-122.822;2024-01-06T08:18:41;4.77;;;1.53;;
6374;SDS011;35400;45.472;-122.822;2024-01-06T08:21:08;3.87;;;2.00;;
6374;SDS011;35400;45.472;-122.822;2024-01-06T08:23:35;9.60;;;2.00;;
6374;SDS011;35400;45.472;-122.822;2024-01-06T08:26:02;7.20;;;2.20;;
6374;SDS011;35400;45.472;-122.822;2024-01-06T08:28:31;7.33;;;2.27;;
6374;SDS011;35400;45.472;-122.822;2024-01-06T08:30:58;5.97;;;1.80;;
6374;SDS011;35400;45.472;-122.822;2024-01-06T08:33:25;8.93;;;2.13;;
6374;SDS011;35400;45.472;-122.822;2024-01-06T08:35:52;8.63;;;2.40;;
6374;SDS011;35400;45.472;-122.822;2024-01-06T08:38:19;8.60;;;2.13;;
6374;SDS011;35400;45.472;-122.822;2024-01-06T08:40:48;5.30;;;2.57;;
6374;SDS011;35400;45.472;-122.822;2024-01-06T08:43:16;8.73;;;2.00;;
6374;SDS011;35400;45.472;-122.822;2024-01-06T08:45:43;11.50;;;2.20;;
6374;SDS011;35400;45.472;-122.822;2024-01-06T08:48:10;8.13;;;2.63;;
6374;SDS011;35400;45.472;-122.822;2024-01-06T08:50:39;8.57;;;2.07;;
6374;SDS011;35400;45.472;-122.822;2024-01-06T08:53:05;10.27;;;2.20;;
6374;SDS011;35400;45.472;-122.822;2024-01-06T08:55:32;4.80;;;1.90;;
6374;SDS011;35400;45.472;-122.822;2024-01-06T08:57:59;8.00;;;1.80;;
6374;SDS011;35400;45.472;-122.822;2024-01-06T09:00:26;8.47;;;2.20;;
6374;SDS011;35400;45.472;-122.822;2024-01-06T09:02:53;5.43;;;1.70;;
6374;SDS011;35400;45.472;-122.822;2024-01-06T09:05:20;5.37;;;1.97;;
6374;SDS011;35400;45.472;-122.822;2024-01-06T09:07:47;6.93;;;2.27;;
6374;SDS011;35400;45.472;-122.822;2024-01-06T09:10:18;4.97;;;1.83;;
6374;SDS011;35400;45.472;-122.822;2024-01-06T09:12:46;7.10;;;1.70;;
6374;SDS011;35400;45.472;-122.822;2024-01-06T09:15:13;6.37;;;1.77;;
6374;SDS011;35400;45.472;-122.822;2024-01-06T09:17:40;5.83;;;1.40;;
6374;SDS011;35400;45.472;-122.822;2024-01-06T09:20:07;4.80;;;1.20;;
6374;SDS011;35400;45.472;-122.822;2024-01-06T09:22:34;3.60;;;1.10;;
6374;SDS011;35400;45.472;-122.822;2024-01-06T09:25:01;2.33;;;0.77;;
6374;SDS011;35400;45.472;-122.822;2024-01-06T09:27:28;3.93;;;1.50;;
6374;SDS011;35400;45.472;-122.822;2024-01-06T09:29:55;3.50;;;1.30;;
6374;SDS011;35400;45.472;-122.822;2024-01-06T09:32:22;6.27;;;1.30;;
6374;SDS011;35400;45.472;-122.822;2024-01-06T09:34:49;3.47;;;1.20;;
6374;SDS011;35400;45.472;-122.822;2024-01-06T09:37:16;2.87;;;0.93;;
6374;SDS011;35400;45.472;-122.822;2024-01-06T09:39:43;4.37;;;1.00;;
6374;SDS011;35400;45.472;-122.822;2024-01-06T09:42:10;3.40;;;0.70;;
6374;SDS011;35400;45.472;-122.822;2024-01-06T09:44:37;5.33;;;0.80;;
6374;SDS011;35400;45.472;-122.822;2024-01-06T09:47:04;2.83;;;0.97;;
6374;SDS011;35400;45.472;-122.822;2024-01-06T09:49:31;3.37;;;0.73;;
6374;SDS011;35400;45.472;-122.822;2024-01-06T09:52:00;1.27;;;0.50;;
6374;SDS011;35400;45.472;-122.822;2024-01-06T09:54:30;5.00;;;0.70;;
6374;SDS011;35400;45.472;-122.822;2024-01-06T09:57:00;3.07;;;0.60;;
6374;SDS011;35400;45.472;-122.822;2024-01-06T09:59:29;5.37;;;0.73;;
6374;SDS011;35400;45.472;-122.822;2024-01-06T10:02:00;3.47;;;0.63;;
6374;SDS011;35400;45.472;-122.822;2024-01-06T10:04:27;2.37;;;0.63;;
6374;SDS011;35400;45.472;-122.822;2024-01-06T10:06:54;1.40;;;0.60;;
6374;SDS011;35400;45.472;-122.822;2024-01-06T10:09:27;4.07;;;0.97;;
6374;SDS011;35400;45.472;-122.822;2024-01-06T10:11:55;2.30;;;0.70;;
6374;SDS011;35400;45.472;-122.822;2024-01-06T10:14:25;5.23;;;0.73;;
6374;SDS011;35400;45.472;-122.822;2024-01-06T10:16:52;1.43;;;0.50;;
6374;SDS011;35400;45.472;-122.822;2024-01-06T10:19:20;2.73;;;0.60;;
6374;SDS011;35400;45.472;-122.822;2024-01-06T10:21:46;0.43;;;0.43;;
6374;SDS011;35400;45.472;-122.822;2024-01-06T10:24:17;2.57;;;0.80;;
6374;SDS011;35400;45.472;-122.822;2024-01-06T10:26:47;1.80;;;0.43;;
6374;SDS011;35400;45.472;-122.822;2024-01-06T10:29:14;2.23;;;0.50;;
6374;SDS011;35400;45.472;-122.822;2024-01-06T10:31:40;1.40;;;0.77;;
6374;SDS011;35400;45.472;-122.822;2024-01-06T10:34:08;1.00;;;0.60;;
6374;SDS011;35400;45.472;-122.822;2024-01-06T10:36:35;2.30;;;0.70;;
6374;SDS011;35400;45.472;-122.822;2024-01-06T10:39:02;2.37;;;0.60;;
6374;SDS011;35400;45.472;-122.822;2024-01-06T10:41:30;1.17;;;0.50;;
6374;SDS011;35400;45.472;-122.822;2024-01-06T10:43:58;2.13;;;1.00;;
6374;SDS011;35400;45.472;-122.822;2024-01-06T10:46:27;4.93;;;0.90;;
6374;SDS011;35400;45.472;-122.822;2024-01-06T10:48:55;4.33;;;1.10;;
6374;SDS011;35400;45.472;-122.822;2024-01-06T10:51:24;3.37;;;1.20;;
6374;SDS011;35400;45.472;-122.822;2024-01-06T10:53:53;2.70;;;1.00;;
6374;SDS011;35400;45.472;-122.822;2024-01-06T10:56:21;2.93;;;0.80;;
6374;SDS011;35400;45.472;-122.822;2024-01-06T10:58:50;1.53;;;0.50;;
6374;SDS011;35400;45.472;-122.822;2024-01-06T11:01:22;2.40;;;0.60;;
6374;SDS011;35400;45.472;-122.822;2024-01-06T11:03:50;1.43;;;0.40;;
6374;SDS011;35400;45.472;-122.822;2024-01-06T11:06:18;1.03;;;0.30;;
6374;SDS011;35400;45.472;-122.822;2024-01-06T11:11:19;0.60;;;0.60;;
6374;SDS011;35400;45.472;-122.822;2024-01-06T11:13:46;3.63;;;0.60;;
6374;SDS011;35400;45.472;-122.822;2024-01-06T11:22:23;1.10;;;0.60;;
6374;SDS011;35400;45.472;-122.822;2024-01-06T11:24:56;0.53;;;0.50;;
6374;SDS011;35400;45.472;-122.822;2024-01-06T11:27:30;2.63;;;0.80;;
6374;SDS011;35400;45.472;-122.822;2024-01-06T11:29:58;0.60;;;0.60;;
6374;SDS011;35400;45.472;-122.822;2024-01-06T11:34:53;2.00;;;0.50;;
6374;SDS011;35400;45.472;-122.822;2024-01-06T11:37:23;1.80;;;0.70;;
6374;SDS011;35400;45.472;-122.822;2024-01-06T11:39:52;1.03;;;0.43;;
6374;SDS011;35400;45.472;-122.822;2024-01-06T11:42:19;2.13;;;0.60;;
6374;SDS011;35400;45.472;-122.822;2024-01-06T11:44:49;1.53;;;0.50;;
6374;SDS011;35400;45.472;-122.822;2024-01-06T11:47:17;2.47;;;0.60;;
6374;SDS011;35400;45.472;-122.822;2024-01-06T11:49:48;2.23;;;0.50;;
6374;SDS011;35400;45.472;-122.822;2024-01-06T11:52:21;2.97;;;1.00;;
6374;SDS011;35400;45.472;-122.822;2024-01-06T11:54:48;3.53;;;0.50;;
6374;SDS011;35400;45.472;-122.822;2024-01-06T11:57:16;2.13;;;0.70;;
6374;SDS011;35400;45.472;-122.822;2024-01-06T11:59:42;2.23;;;0.50;;
6374;SDS011;35400;45.472;-122.822;2024-01-06T12:02:12;1.77;;;0.43;;
6374;SDS011;35400;45.472;-122.822;2024-01-06T12:04:40;0.67;;;0.40;;
6374;SDS011;35400;45.472;-122.822;2024-01-06T12:07:07;1.17;;;0.67;;
6374;SDS011;35400;45.472;-122.822;2024-01-06T12:09:35;1.83;;;0.40;;
6374;SDS011;35400;45.472;-122.822;2024-01-06T12:12:02;1.50;;;0.60;;
6374;SDS011;35400;45.472;-122.822;2024-01-06T12:14:31;0.53;;;0.30;;
6374;SDS011;35400;45.472;-122.822;2024-01-06T12:16:59;0.43;;;0.40;;
6374;SDS011;35400;45.472;-122.822;2024-01-06T12:19:32;1.33;;;0.50;;
6374;SDS011;35400;45.472;-122.822;2024-01-06T12:21:59;0.60;;;0.50;;
6374;SDS011;35400;45.472;-122.822;2024-01-06T12:24:28;0.83;;;0.40;;
6374;SDS011;35400;45.472;-122.822;2024-01-06T12:26:56;0.53;;;0.43;;
6374;SDS011;35400;45.472;-122.822;2024-01-06T12:29:26;3.13;;;0.93;;
6374;SDS011;35400;45.472;-122.822;2024-01-06T12:31:58;0.40;;;0.20;;
6374;SDS011;35400;45.472;-122.822;2024-01-06T12:34:26;0.53;;;0.30;;
6374;SDS011;35400;45.472;-122.822;2024-01-06T12:36:53;0.63;;;0.40;;
6374;SDS011;35400;45.472;-122.822;2024-01-06T12:39:26;0.40;;;0.40;;
6374;SDS011;35400;45.472;-122.822;2024-01-06T12:41:54;0.50;;;0.40;;
6374;SDS011;35400;45.472;-122.822;2024-01-06T12:44:22;2.07;;;0.40;;
6374;SDS011;35400;45.472;-122.822;2024-01-06T12:46:49;0.80;;;0.40;;
6374;SDS011;35400;45.472;-122.822;2024-01-06T12:49:16;0.43;;;0.30;;
6374;SDS011;35400;45.472;-122.822;2024-01-06T12:51:43;1.70;;;0.60;;
6374;SDS011;35400;45.472;-122.822;2024-01-06T12:54:10;2.37;;;0.50;;
6374;SDS011;35400;45.472;-122.822;2024-01-06T12:56:37;0.43;;;0.40;;
6374;SDS011;35400;45.472;-122.822;2024-01-06T12:59:04;0.83;;;0.40;;
6374;SDS011;35400;45.472;-122.822;2024-01-06T13:01:31;1.33;;;0.40;;
6374;SDS011;35400;45.472;-122.822;2024-01-06T13:03:58;0.70;;;0.43;;
6374;SDS011;35400;45.472;-122.822;2024-01-06T13:06:26;1.30;;;0.60;;
6374;SDS011;35400;45.472;-122.822;2024-01-06T13:08:54;0.83;;;0.30;;
6374;SDS011;35400;45.472;-122.822;2024-01-06T13:11:21;0.50;;;0.40;;
6374;SDS011;35400;45.472;-122.822;2024-01-06T13:13:48;0.40;;;0.40;;
6374;SDS011;35400;45.472;-122.822;2024-01-06T13:16:15;1.17;;;0.40;;
6374;SDS011;35400;45.472;-122.822;2024-01-06T13:18:42;2.53;;;0.50;;
6374;SDS011;35400;45.472;-122.822;2024-01-06T13:21:09;1.80;;;0.50;;
6374;SDS011;35400;45.472;-122.822;2024-01-06T13:23:35;0.30;;;0.30;;
6374;SDS011;35400;45.472;-122.822;2024-01-06T13:26:02;1.07;;;0.43;;
6374;SDS011;35400;45.472;-122.822;2024-01-06T13:28:29;0.60;;;0.50;;
6374;SDS011;35400;45.472;-122.822;2024-01-06T13:30:56;0.67;;;0.43;;
6374;SDS011;35400;45.472;-122.822;2024-01-06T13:33:23;0.50;;;0.47;;
6374;SDS011;35400;45.472;-122.822;2024-01-06T13:35:50;0.93;;;0.50;;
6374;SDS011;35400;45.472;-122.822;2024-01-06T13:38:17;1.13;;;0.50;;
6374;SDS011;35400;45.472;-122.822;2024-01-06T13:40:43;0.40;;;0.40;;
6374;SDS011;35400;45.472;-122.822;2024-01-06T13:43:10;0.50;;;0.40;;
6374;SDS011;35400;45.472;-122.822;2024-01-06T13:45:42;0.63;;;0.40;;
6374;SDS011;35400;45.472;-122.822;2024-01-06T13:48:13;1.67;;;0.80;;
6374;SDS011;35400;45.472;-122.822;2024-01-06T13:50:41;0.40;;;0.40;;
6374;SDS011;35400;45.472;-122.822;2024-01-06T13:53:08;0.63;;;0.53;;
6374;SDS011;35400;45.472;-122.822;2024-01-06T13:55:35;1.07;;;0.53;;
6374;SDS011;35400;45.472;-122.822;2024-01-06T13:58:02;7.47;;;3.70;;
6374;SDS011;35400;45.472;-122.822;2024-01-06T14:00:30;10.03;;;4.47;;
6374;SDS011;35400;45.472;-122.822;2024-01-06T14:02:57;8.97;;;4.13;;
6374;SDS011;35400;45.472;-122.822;2024-01-06T14:05:25;3.17;;;1.93;;
6374;SDS011;35400;45.472;-122.822;2024-01-06T14:07:52;2.73;;;1.00;;
6374;SDS011;35400;45.472;-122.822;2024-01-06T14:10:19;2.77;;;0.70;;
6374;SDS011;35400;45.472;-122.822;2024-01-06T14:12:46;0.40;;;0.37;;
6374;SDS011;35400;45.472;-122.822;2024-01-06T14:15:12;0.50;;;0.50;;
6374;SDS011;35400;45.472;-122.822;2024-01-06T14:17:39;0.40;;;0.40;;
6374;SDS011;35400;45.472;-122.822;2024-01-06T14:20:07;0.30;;;0.30;;
6374;SDS011;35400;45.472;-122.822;2024-01-06T14:22:38;0.97;;;0.40;;
6374;SDS011;35400;45.472;-122.822;2024-01-06T14:25:05;0.40;;;0.40;;
6374;SDS011;35400;45.472;-122.822;2024-01-06T14:27:32;0.33;;;0.33;;
6374;SDS011;35400;45.472;-122.822;2024-01-06T14:29:59;0.50;;;0.40;;
6374;SDS011;35400;45.472;-122.822;2024-01-06T14:32:26;0.60;;;0.50;;